Terminal Aerodrome Forecast
Issued by NWS

Home | Current Version | Previous Version | Text Only | Print | Product List | Glossary On
Versions: 1 2 3 4 5 6 7 8 9 10 11 12 13 14 15 16 17 18
850
FTUS45 KRIW 281720
TAFCOD
TAF
KCOD 281720Z 2818/2918 01010KT P6SM SCT015 OVC035
     FM290500 34007KT P6SM VCSH OVC016
     FM290900 VRB06KT P6SM OVC016
     FM291500 15007KT P6SM SCT016 BKN050
      AMD LTD TO CLD VIS AND WIND=

USA.gov is the U.S. government's official web portal to all federal, state and local government web resources and services.